Time;durP1;ratioP1;P1;durP2;ratioP2;P2;SDS_P1;SDS_P2;PMS_P1;PMS_P2;Temp;Humidity;BMP_temperature;BMP_pressure;BME280_temperature;BME280_humidity;BME280_pressure;Samples;Min_cycle;Max_cycle;Signal;HPM_P1;HPM_P2
2020/12/24 07:08:53;;;;;;;1999.90;999.90;;;5.10;99.90;;;;;;5109736;27;20899;-45
2020/12/24 07:11:39;;;;;;;1999.90;999.90;;;4.90;99.90;;;;;;5128062;28;20430;-46
2020/12/24 07:14:04;;;;;;;1999.90;999.90;;;4.80;99.90;;;;;;5107514;28;20209;-46
2020/12/24 07:16:47;;;;;;;1999.90;999.90;;;4.80;99.90;;;;;;5074891;28;20518;-47
2020/12/24 07:19:16;;;;;;;1999.90;999.90;;;4.70;99.90;;;;;;5089739;28;20210;-46
2020/12/24 07:21:49;;;;;;;1999.90;999.90;;;4.80;99.90;;;;;;5088924;28;20440;-46
2020/12/24 07:24:17;;;;;;;1999.90;999.90;;;4.80;99.90;;;;;;5091626;28;20549;-47
2020/12/24 07:26:43;;;;;;;1999.90;999.90;;;4.80;99.90;;;;;;5099654;28;20439;-46
2020/12/24 07:29:13;;;;;;;1999.90;999.90;;;4.80;99.90;;;;;;5105725;28;20417;-47
2020/12/24 07:31:40;;;;;;;1999.90;999.90;;;4.90;99.90;;;;;;5116687;28;20409;-46
2020/12/24 07:34:06;;;;;;;1999.90;999.90;;;4.80;99.90;;;;;;5113563;28;20492;-47
2020/12/24 07:36:31;;;;;;;1999.90;999.90;;;4.70;99.90;;;;;;5119819;28;20976;-47
2020/12/24 07:38:57;;;;;;;1999.90;999.90;;;4.60;99.90;;;;;;5129989;28;20640;-46
2020/12/24 07:41:23;;;;;;;1999.90;999.90;;;4.50;99.90;;;;;;5129374;28;20189;-46
2020/12/24 07:43:50;;;;;;;1999.90;999.90;;;4.50;99.90;;;;;;5125066;28;20244;-46
2020/12/24 07:46:20;;;;;;;1999.90;999.90;;;4.60;99.90;;;;;;5101360;28;20978;-46
2020/12/24 07:48:48;;;;;;;1999.90;999.90;;;4.70;99.90;;;;;;5103443;28;21067;-45
2020/12/24 07:51:14;;;;;;;1999.90;999.90;;;4.70;99.90;;;;;;5102666;28;20465;-46
2020/12/24 07:53:39;;;;;;;1999.90;999.90;;;4.70;99.90;;;;;;5105042;28;20426;-47
2020/12/24 07:56:08;;;;;;;1999.90;999.90;;;4.70;99.90;;;;;;5084560;28;20176;-46
2020/12/24 07:58:34;;;;;;;1999.90;999.90;;;4.70;99.90;;;;;;5103943;28;20176;-47
2020/12/24 08:01:03;;;;;;;1999.90;999.90;;;4.80;99.90;;;;;;5122009;28;20420;-48
2020/12/24 08:03:30;;;;;;;1999.90;999.90;;;4.90;99.90;;;;;;5125833;28;20438;-47
2020/12/24 08:06:06;;;;;;;1999.90;999.90;;;5.00;99.90;;;;;;5080548;28;20658;-47
2020/12/24 08:08:35;;;;;;;1999.90;999.90;;;5.10;99.90;;;;;;5100728;28;20488;-47
2020/12/24 08:11:01;;;;;;;1999.90;999.90;;;5.20;99.90;;;;;;5102799;27;20417;-48
2020/12/24 08:13:27;;;;;;;1999.90;999.90;;;5.40;99.90;;;;;;5103016;28;20454;-47
2020/12/24 08:15:57;;;;;;;1999.90;999.90;;;5.50;99.90;;;;;;5088967;28;20766;-48
2020/12/24 08:18:32;;;;;;;1999.90;999.90;;;5.60;99.90;;;;;;5073148;28;20174;-49
2020/12/24 08:21:00;;;;;;;1999.90;999.90;;;5.80;99.90;;;;;;5066215;28;20874;-47
2020/12/24 08:23:44;;;;;;;1999.90;999.90;;;5.90;99.90;;;;;;5068847;28;20525;-47
2020/12/24 08:26:15;;;;;;;1999.90;999.90;;;6.00;99.90;;;;;;5088645;28;20408;-47
2020/12/24 08:28:47;;;;;;;1999.90;999.90;;;6.00;99.90;;;;;;5091051;28;20443;-48
2020/12/24 08:31:13;;;;;;;1999.90;999.90;;;6.10;99.90;;;;;;5090787;28;20416;-47
2020/12/24 08:33:40;;;;;;;1999.90;999.90;;;6.20;99.90;;;;;;5089799;28;20804;-49
2020/12/24 08:36:18;;;;;;;1999.90;999.90;;;6.40;99.90;;;;;;5082436;28;20438;-48
2020/12/24 08:38:44;;;;;;;1999.90;999.90;;;6.40;99.90;;;;;;5082865;28;20465;-48
2020/12/24 08:41:40;;;;;;;1999.90;999.90;;;6.50;99.90;;;;;;5080836;28;21224;-48
2020/12/24 08:44:06;;;;;;;1999.90;999.90;;;6.50;99.90;;;;;;5067633;28;20221;-48
2020/12/24 08:46:32;;;;;;;1999.90;999.90;;;6.60;99.90;;;;;;5089566;28;20554;-48
2020/12/24 08:49:21;;;;;;;1999.90;999.90;;;6.50;99.90;;;;;;5091723;28;20498;-49
2020/12/24 08:51:46;;;;;;;1999.90;999.90;;;6.50;99.90;;;;;;5083364;28;20562;-47
2020/12/24 08:54:14;;;;;;;1999.90;999.90;;;6.50;99.90;;;;;;5056350;28;20524;-48
2020/12/24 08:56:42;;;;;;;1999.90;999.90;;;6.50;99.90;;;;;;5073473;28;20193;-48
2020/12/24 08:59:11;;;;;;;1999.90;999.90;;;6.60;99.90;;;;;;5080313;28;20522;-48
2020/12/24 13:26:14;;;;;;;1999.90;999.90;;;6.30;99.90;;;;;;5108682;27;20544;-48
2020/12/24 13:28:40;;;;;;;1999.90;999.90;;;6.20;99.90;;;;;;5086439;28;20917;-48
2020/12/24 13:31:07;;;;;;;1999.90;999.90;;;6.20;99.90;;;;;;5083174;28;20489;-47
2020/12/24 13:33:33;;;;;;;1999.90;999.90;;;6.20;99.90;;;;;;5089153;28;20451;-48
2020/12/24 13:36:00;;;;;;;1999.90;999.90;;;6.20;99.90;;;;;;5088205;28;20443;-48
2020/12/24 13:38:25;;;;;;;1999.90;999.90;;;6.20;99.90;;;;;;5089530;28;20863;-48
2020/12/24 13:40:51;;;;;;;1999.90;999.90;;;6.20;99.90;;;;;;5088751;28;20420;-48
2020/12/24 13:43:18;;;;;;;1999.90;999.90;;;6.10;99.90;;;;;;5089518;28;20465;-48
2020/12/24 13:45:44;;;;;;;1999.90;999.90;;;6.00;99.90;;;;;;5089923;28;20201;-47
2020/12/24 13:48:10;;;;;;;1999.90;999.90;;;6.00;99.90;;;;;;5101852;22;20437;-52
2020/12/24 13:50:38;;;;;;;1999.90;999.90;;;5.90;99.90;;;;;;5043625;28;20575;-52
2020/12/24 13:53:04;;;;;;;1999.90;999.90;;;6.00;99.90;;;;;;5042657;28;20557;-52
2020/12/24 13:55:30;;;;;;;1999.90;999.90;;;6.10;99.90;;;;;;5045993;28;20399;-52
2020/12/24 13:57:55;;;;;;;1999.90;999.90;;;6.30;99.90;;;;;;5048368;28;20175;-52
2020/12/24 14:00:21;;;;;;;1999.90;999.90;;;6.40;99.90;;;;;;5048709;28;20733;-52
2020/12/24 14:02:46;;;;;;;1999.90;999.90;;;6.40;99.90;;;;;;5026090;28;20182;-53
2020/12/24 14:05:12;;;;;;;1999.90;999.90;;;6.40;99.90;;;;;;5028397;28;20565;-52
2020/12/24 14:07:37;;;;;;;1999.90;999.90;;;6.40;99.90;;;;;;5027457;28;20180;-53
2020/12/24 14:10:03;;;;;;;1999.90;999.90;;;6.40;99.90;;;;;;5028487;28;20201;-53
2020/12/24 14:12:29;;;;;;;1999.90;999.90;;;6.30;99.90;;;;;;5028122;28;20232;-52
2020/12/24 14:14:55;;;;;;;1999.90;999.90;;;6.20;99.90;;;;;;5028547;28;20407;-52
2020/12/24 14:17:20;;;;;;;1999.90;999.90;;;6.10;99.90;;;;;;5028173;28;20196;-51
2020/12/24 14:19:46;;;;;;;1999.90;999.90;;;6.00;99.90;;;;;;5028299;28;20298;-53
2020/12/24 14:22:12;;;;;;;1999.90;999.90;;;6.00;99.90;;;;;;5030947;28;20697;-53
2020/12/24 14:24:38;;;;;;;1999.90;999.90;;;6.00;99.90;;;;;;5027944;28;20248;-52
2020/12/24 14:27:04;;;;;;;1999.90;999.90;;;6.00;99.90;;;;;;5028513;28;20416;-52
2020/12/24 14:29:30;;;;;;;1999.90;999.90;;;6.00;99.90;;;;;;5026914;28;20201;-52
2020/12/24 14:31:56;;;;;;;1999.90;999.90;;;6.00;99.90;;;;;;5037941;28;20434;-51
2020/12/24 14:34:22;;;;;;;1999.90;999.90;;;5.90;99.90;;;;;;5041788;28;20427;-52
2020/12/24 14:36:54;;;;;;;1999.90;999.90;;;5.40;99.90;;;;;;5017859;28;20559;-50
2020/12/24 14:39:21;;;;;;;1999.90;999.90;;;4.90;99.90;;;;;;4995227;28;20449;-51
2020/12/24 14:41:47;;;;;;;1999.90;999.90;;;4.50;99.90;;;;;;5012436;28;21116;-52
2020/12/24 14:44:13;;;;;;;1999.90;999.90;;;4.40;99.90;;;;;;5013582;28;20494;-52
2020/12/24 14:46:39;;;;;;;1999.90;999.90;;;4.20;99.90;;;;;;5013569;28;20274;-52
2020/12/24 14:49:05;;;;;;;1999.90;999.90;;;4.00;99.90;;;;;;5014603;28;20505;-52
2020/12/24 14:51:30;;;;;;;1999.90;999.90;;;3.90;99.90;;;;;;5008047;28;20188;-52
2020/12/24 14:53:56;;;;;;;1999.90;999.90;;;3.80;99.90;;;;;;5005539;28;20195;-52
2020/12/24 14:56:24;;;;;;;1999.90;999.90;;;3.70;99.90;;;;;;5007024;28;20183;-51
2020/12/24 14:58:50;;;;;;;1999.90;999.90;;;3.70;99.90;;;;;;4990382;28;20458;-53
2020/12/24 15:01:19;;;;;;;1999.90;999.90;;;3.60;99.90;;;;;;5015020;28;20430;-52
2020/12/24 15:03:48;;;;;;;1999.90;999.90;;;3.60;99.90;;;;;;5007549;28;20499;-49
2020/12/24 15:06:17;;;;;;;1999.90;999.90;;;3.60;99.90;;;;;;5004457;28;20447;-52
2020/12/24 15:08:46;;;;;;;1999.90;999.90;;;3.60;99.90;;;;;;5011994;28;20455;-50
2020/12/24 15:11:12;;;;;;;1999.90;999.90;;;3.60;99.90;;;;;;4998682;28;20873;-52
2020/12/24 15:13:38;;;;;;;1999.90;999.90;;;3.50;99.90;;;;;;5002494;28;20523;-52
2020/12/24 15:16:03;;;;;;;1999.90;999.90;;;3.50;99.90;;;;;;4997476;28;20479;-52
2020/12/24 15:18:30;;;;;;;1999.90;999.90;;;3.50;99.90;;;;;;4999440;28;20251;-52
2020/12/24 15:20:56;;;;;;;1999.90;999.90;;;3.40;99.90;;;;;;4999841;28;20191;-51
2020/12/24 15:23:23;;;;;;;1999.90;999.90;;;3.40;99.90;;;;;;5004513;28;20902;-50
2020/12/24 15:25:49;;;;;;;1999.90;999.90;;;3.40;99.90;;;;;;5001563;28;21020;-52
2020/12/24 15:28:15;;;;;;;1999.90;999.90;;;3.30;99.90;;;;;;4994763;28;20488;-52
2020/12/24 15:30:43;;;;;;;1999.90;999.90;;;3.30;99.90;;;;;;4994063;28;20533;-52
2020/12/24 15:33:09;;;;;;;1999.90;999.90;;;3.30;99.90;;;;;;5000245;28;20450;-50
2020/12/24 15:35:35;;;;;;;1999.90;999.90;;;3.30;99.90;;;;;;4995952;28;20946;-50
2020/12/24 15:38:05;;;;;;;1999.90;999.90;;;3.30;99.90;;;;;;5012069;28;20461;-52
2020/12/24 15:40:30;;;;;;;1999.90;999.90;;;3.20;99.90;;;;;;5006916;28;20203;-50
2020/12/24 15:42:56;;;;;;;1999.90;999.90;;;3.20;99.90;;;;;;5002008;28;20433;-52
2020/12/24 15:45:22;;;;;;;1999.90;999.90;;;3.20;99.90;;;;;;5013379;28;20223;-50
2020/12/24 15:47:47;;;;;;;1999.90;999.90;;;3.10;99.90;;;;;;5007266;28;20286;-52
2020/12/24 15:50:13;;;;;;;1999.90;999.90;;;3.10;99.90;;;;;;5005622;28;20254;-51
2020/12/24 15:52:39;;;;;;;1999.90;999.90;;;3.10;99.90;;;;;;5012009;28;20235;-52
2020/12/24 15:55:05;;;;;;;1999.90;999.90;;;3.00;99.90;;;;;;5008648;28;20670;-50
2020/12/24 15:57:31;;;;;;;1999.90;999.90;;;3.00;99.90;;;;;;5004911;28;20195;-51
2020/12/24 15:59:56;;;;;;;1999.90;999.90;;;3.00;99.90;;;;;;4997971;28;20214;-51
2020/12/24 16:02:23;;;;;;;1999.90;999.90;;;3.00;99.90;;;;;;5008647;28;20453;-51
2020/12/24 16:04:49;;;;;;;1999.90;999.90;;;2.90;99.90;;;;;;5006783;28;20208;-50
2020/12/24 16:07:15;;;;;;;1999.90;999.90;;;2.90;99.90;;;;;;5004504;28;20449;-51
2020/12/24 16:09:40;;;;;;;1999.90;999.90;;;2.90;99.90;;;;;;5006799;28;20487;-52
2020/12/24 16:12:06;;;;;;;1999.90;999.90;;;2.90;99.90;;;;;;5002196;28;20201;-49
2020/12/24 16:14:32;;;;;;;1999.90;999.90;;;2.90;99.90;;;;;;4999421;28;20195;-52
2020/12/24 16:16:58;;;;;;;1999.90;999.90;;;2.80;99.90;;;;;;5000540;28;20238;-49
2020/12/24 16:19:23;;;;;;;1999.90;999.90;;;2.80;99.90;;;;;;5001906;28;20223;-51
2020/12/24 16:21:49;;;;;;;1999.90;999.90;;;2.80;99.90;;;;;;4998235;28;20202;-52
2020/12/24 16:24:14;;;;;;;1999.90;999.90;;;2.80;99.90;;;;;;5000204;28;20211;-50
2020/12/24 16:26:40;;;;;;;1999.90;999.90;;;2.80;99.90;;;;;;5000383;28;20234;-52
2020/12/24 16:29:07;;;;;;;1999.90;999.90;;;2.70;99.90;;;;;;5010684;28;20220;-50
2020/12/24 16:31:36;;;;;;;1999.90;999.90;;;2.70;99.90;;;;;;5000052;28;20201;-51
2020/12/24 16:34:03;;;;;;;1999.90;999.90;;;2.70;99.90;;;;;;5000375;28;20464;-51
2020/12/24 16:36:29;;;;;;;1999.90;999.90;;;2.70;99.90;;;;;;5010727;28;20438;-50
2020/12/24 16:38:55;;;;;;;1999.90;999.90;;;2.70;99.90;;;;;;5012436;28;20464;-51
2020/12/24 16:41:21;;;;;;;1999.90;999.90;;;2.70;99.90;;;;;;5005376;28;20472;-50
2020/12/24 16:43:48;;;;;;;1999.90;999.90;;;2.60;99.90;;;;;;5000469;28;20221;-50
2020/12/24 16:46:15;;;;;;;1999.90;999.90;;;2.60;99.90;;;;;;4998285;28;20556;-50
2020/12/24 16:48:41;;;;;;;1999.90;999.90;;;2.60;99.90;;;;;;4996400;28;20584;-49
2020/12/24 16:51:12;;;;;;;1999.90;999.90;;;2.60;99.90;;;;;;4995563;28;20557;-50
2020/12/24 16:53:38;;;;;;;1999.90;999.90;;;2.60;99.90;;;;;;5004252;28;20585;-51
2020/12/24 16:56:11;;;;;;;1999.90;999.90;;;2.60;99.90;;;;;;5003425;28;21321;-49
2020/12/24 16:58:38;;;;;;;1999.90;999.90;;;2.60;99.90;;;;;;4999692;28;20465;-49
2020/12/24 17:01:04;;;;;;;1999.90;999.90;;;2.60;99.90;;;;;;4994008;28;20457;-50
2020/12/24 17:03:34;;;;;;;1999.90;999.90;;;2.60;99.90;;;;;;4999147;28;20428;-51
2020/12/24 17:06:04;;;;;;;1999.90;999.90;;;2.60;99.90;;;;;;4992960;28;20458;-51
2020/12/24 17:08:30;;;;;;;1999.90;999.90;;;2.60;99.90;;;;;;4997877;28;20572;-49
2020/12/24 17:10:57;;;;;;;1999.90;999.90;;;2.60;99.90;;;;;;4995110;28;20445;-50
2020/12/24 17:13:23;;;;;;;1999.90;999.90;;;2.60;99.90;;;;;;4999265;28;20445;-51
2020/12/24 17:15:49;;;;;;;1999.90;999.90;;;2.50;99.90;;;;;;5008731;28;20806;-47
2020/12/24 17:18:15;;;;;;;1999.90;999.90;;;2.60;99.90;;;;;;5005821;28;20967;-47
2020/12/24 17:20:59;;;;;;;1999.90;999.90;;;2.60;99.90;;;;;;5001888;28;20516;-47
2020/12/24 17:23:24;;;;;;;1999.90;999.90;;;2.60;99.90;;;;;;5009850;28;20432;-47
2020/12/24 17:25:50;;;;;;;1999.90;999.90;;;2.60;99.90;;;;;;5009554;28;20474;-50
2020/12/24 17:28:16;;;;;;;1999.90;999.90;;;2.60;99.90;;;;;;5005974;28;20223;-48
2020/12/24 17:30:41;;;;;;;1999.90;999.90;;;2.60;99.90;;;;;;5006957;28;20191;-47
2020/12/24 17:33:07;;;;;;;1999.90;999.90;;;2.60;99.90;;;;;;5003097;28;20194;-47
2020/12/24 17:35:34;;;;;;;1999.90;999.90;;;2.60;99.90;;;;;;5010192;28;20269;-48
2020/12/24 17:37:59;;;;;;;1999.90;999.90;;;2.50;99.90;;;;;;5009381;28;20844;-49
2020/12/24 17:40:27;;;;;;;1999.90;999.90;;;2.50;99.90;;;;;;5009818;28;20445;-48
2020/12/24 17:42:53;;;;;;;1999.90;999.90;;;2.50;99.90;;;;;;5009244;28;20433;-51
2020/12/24 17:45:18;;;;;;;1999.90;999.90;;;2.50;99.90;;;;;;4991315;28;20475;-47
2020/12/24 17:47:44;;;;;;;1999.90;999.90;;;2.60;99.90;;;;;;5004179;28;20196;-47
2020/12/24 17:50:10;;;;;;;1999.90;999.90;;;2.50;99.90;;;;;;5008711;28;20219;-48
2020/12/24 17:52:36;;;;;;;1999.90;999.90;;;2.50;99.90;;;;;;5008089;28;20217;-48
2020/12/24 17:55:02;;;;;;;1999.90;999.90;;;2.50;99.90;;;;;;5009354;28;20422;-50
2020/12/24 17:57:27;;;;;;;1999.90;999.90;;;2.50;99.90;;;;;;5007180;28;20224;-51
2020/12/24 17:59:53;;;;;;;1999.90;999.90;;;2.50;99.90;;;;;;5006746;28;20449;-48
2020/12/24 18:02:19;;;;;;;1999.90;999.90;;;2.50;99.90;;;;;;5008217;28;20198;-47
2020/12/24 18:04:45;;;;;;;1999.90;999.90;;;2.50;99.90;;;;;;5009214;28;20698;-48
2020/12/24 18:07:12;;;;;;;1999.90;999.90;;;2.50;99.90;;;;;;4992706;28;20252;-49
2020/12/24 18:09:39;;;;;;;1999.90;999.90;;;2.50;99.90;;;;;;5004389;28;20238;-51
2020/12/24 18:12:05;;;;;;;1999.90;999.90;;;2.50;99.90;;;;;;5009555;28;20488;-52
2020/12/24 18:14:32;;;;;;;1999.90;999.90;;;2.50;99.90;;;;;;4993657;28;20474;-49
2020/12/24 18:16:58;;;;;;;1999.90;999.90;;;2.50;99.90;;;;;;5008670;28;20646;-49
2020/12/24 18:19:25;;;;;;;1999.90;999.90;;;2.50;99.90;;;;;;5012452;28;20830;-49
2020/12/24 18:21:56;;;;;;;1999.90;999.90;;;2.50;99.90;;;;;;5009120;28;20462;-51
2020/12/24 18:24:22;;;;;;;1999.90;999.90;;;2.50;99.90;;;;;;4993514;28;20872;-49
2020/12/24 18:26:49;;;;;;;1999.90;999.90;;;2.50;99.90;;;;;;5006668;28;20434;-49
2020/12/24 18:29:14;;;;;;;1999.90;999.90;;;2.50;99.90;;;;;;5005612;28;20527;-49
2020/12/24 18:31:42;;;;;;;1999.90;999.90;;;2.40;99.90;;;;;;5007529;28;20875;-49
2020/12/24 18:34:08;;;;;;;1999.90;999.90;;;2.40;99.90;;;;;;5005676;28;20926;-51
2020/12/24 18:36:34;;;;;;;1999.90;999.90;;;2.40;99.90;;;;;;5005302;28;20934;-52
2020/12/24 18:39:00;;;;;;;1999.90;999.90;;;2.40;99.90;;;;;;5001959;28;20461;-50
2020/12/24 18:41:26;;;;;;;1999.90;999.90;;;2.30;99.90;;;;;;5008680;28;20242;-49
2020/12/24 18:43:52;;;;;;;1999.90;999.90;;;2.30;99.90;;;;;;5007000;28;20192;-50
2020/12/24 18:46:17;;;;;;;1999.90;999.90;;;2.30;99.90;;;;;;5015461;28;20469;-50
2020/12/24 18:48:43;;;;;;;1999.90;999.90;;;2.20;99.90;;;;;;5029366;28;20199;-52
2020/12/24 18:51:18;;;;;;;1999.90;999.90;;;2.20;99.90;;;;;;5011461;28;20452;-49
2020/12/24 18:53:45;;;;;;;1999.90;999.90;;;2.20;99.90;;;;;;5010948;28;20192;-52
2020/12/24 18:56:13;;;;;;;1999.90;999.90;;;2.20;99.90;;;;;;5014665;28;20453;-49
2020/12/24 18:58:39;;;;;;;1999.90;999.90;;;2.20;99.90;;;;;;5010602;28;20457;-50
2020/12/24 19:01:09;;;;;;;1999.90;999.90;;;2.30;99.90;;;;;;5007446;28;20863;-51
2020/12/24 19:03:36;;;;;;;1999.90;999.90;;;2.20;99.90;;;;;;5011298;28;20796;-50
2020/12/24 19:06:08;;;;;;;1999.90;999.90;;;2.20;99.90;;;;;;5016656;28;20483;-49
2020/12/24 19:08:35;;;;;;;1999.90;999.90;;;2.20;99.90;;;;;;5014014;28;20861;-49
2020/12/24 19:11:01;;;;;;;1999.90;999.90;;;2.20;99.90;;;;;;5016589;28;20432;-50
2020/12/24 19:13:27;;;;;;;1999.90;999.90;;;2.20;99.90;;;;;;5012476;28;20505;-49
2020/12/24 19:15:52;;;;;;;1999.90;999.90;;;2.20;99.90;;;;;;5003476;28;20463;-51
2020/12/24 19:18:18;;;;;;;1999.90;999.90;;;2.20;99.90;;;;;;5006623;28;20238;-50
2020/12/24 19:20:44;;;;;;;1999.90;999.90;;;2.20;99.90;;;;;;5009332;28;20198;-50
2020/12/24 19:23:10;;;;;;;1999.90;999.90;;;2.20;99.90;;;;;;5006513;28;20516;-50
2020/12/24 19:25:36;;;;;;;1999.90;999.90;;;2.20;99.90;;;;;;5009914;28;21015;-49
2020/12/24 19:28:02;;;;;;;1999.90;999.90;;;2.20;99.90;;;;;;5008776;28;20194;-51
2020/12/24 19:30:28;;;;;;;1999.90;999.90;;;2.20;99.90;;;;;;5007467;28;20949;-51
2020/12/24 19:32:53;;;;;;;1999.90;999.90;;;2.20;99.90;;;;;;5005676;28;20441;-49
2020/12/24 19:35:19;;;;;;;1999.90;999.90;;;2.10;99.90;;;;;;5004030;28;20833;-49
2020/12/24 19:37:48;;;;;;;1999.90;999.90;;;2.00;99.90;;;;;;5011651;28;20202;-50
2020/12/24 19:40:15;;;;;;;1999.90;999.90;;;1.90;99.90;;;;;;5002636;28;20963;-49
2020/12/24 19:42:40;;;;;;;1999.90;999.90;;;1.70;99.90;;;;;;5004747;28;21317;-50
2020/12/24 19:45:06;;;;;;;1999.90;999.90;;;1.70;99.90;;;;;;5009397;28;20562;-50
2020/12/24 19:47:37;;;;;;;1999.90;999.90;;;1.60;99.90;;;;;;5007747;28;20200;-51
2020/12/24 19:50:04;;;;;;;1999.90;999.90;;;1.60;99.90;;;;;;5009192;28;20500;-50
2020/12/24 19:52:33;;;;;;;1999.90;999.90;;;1.60;99.90;;;;;;5010348;28;20984;-49
2020/12/24 19:54:59;;;;;;;1999.90;999.90;;;1.60;99.90;;;;;;4992893;28;20475;-50
2020/12/24 19:57:25;;;;;;;1999.90;999.90;;;1.70;99.90;;;;;;5008352;28;20442;-50
2020/12/24 19:59:50;;;;;;;1999.90;999.90;;;1.70;99.90;;;;;;5004942;28;20825;-51
2020/12/24 20:02:16;;;;;;;1999.90;999.90;;;1.80;99.90;;;;;;5007229;28;20194;-50
2020/12/24 20:04:42;;;;;;;1999.90;999.90;;;1.80;99.90;;;;;;5010017;28;20206;-49
2020/12/24 20:07:08;;;;;;;1999.90;999.90;;;1.80;99.90;;;;;;5009245;28;20178;-50
2020/12/24 20:09:34;;;;;;;1999.90;999.90;;;1.90;99.90;;;;;;5010924;28;20438;-50
2020/12/24 20:12:01;;;;;;;1999.90;999.90;;;1.90;99.90;;;;;;5006231;28;20217;-51
2020/12/24 20:14:26;;;;;;;1999.90;999.90;;;2.00;99.90;;;;;;5002719;28;20193;-50
2020/12/24 20:16:52;;;;;;;1999.90;999.90;;;2.00;99.90;;;;;;5007190;28;20464;-51
2020/12/24 20:19:18;;;;;;;1999.90;999.90;;;2.00;99.90;;;;;;5005033;28;20211;-51
2020/12/24 20:22:02;;;;;;;1999.90;999.90;;;2.00;99.90;;;;;;5009914;28;20272;-51
2020/12/24 20:24:29;;;;;;;1999.90;999.90;;;2.00;99.90;;;;;;5008522;28;20462;-51
2020/12/24 20:27:01;;;;;;;1999.90;999.90;;;2.10;99.90;;;;;;5011083;28;20493;-51
2020/12/24 20:29:29;;;;;;;1999.90;999.90;;;2.10;99.90;;;;;;5007241;28;21203;-51
2020/12/24 20:31:55;;;;;;;1999.90;999.90;;;2.10;99.90;;;;;;5008515;28;20470;-51
2020/12/24 20:34:21;;;;;;;1999.90;999.90;;;2.00;99.90;;;;;;5008155;28;20802;-51
2020/12/24 20:36:49;;;;;;;1999.90;999.90;;;2.00;99.90;;;;;;5007787;28;20781;-51
2020/12/24 20:39:16;;;;;;;1999.90;999.90;;;2.00;99.90;;;;;;5010252;28;21020;-49
2020/12/24 20:41:43;;;;;;;1999.90;999.90;;;2.00;99.90;;;;;;5007075;28;20449;-51
2020/12/24 20:44:08;;;;;;;1999.90;999.90;;;2.00;99.90;;;;;;5010375;28;20496;-50
2020/12/24 20:46:38;;;;;;;1999.90;999.90;;;2.00;99.90;;;;;;5005996;28;21092;-50
2020/12/24 20:49:05;;;;;;;1999.90;999.90;;;2.00;99.90;;;;;;5004427;28;20229;-50
2020/12/24 20:51:48;;;;;;;1999.90;999.90;;;2.00;99.90;;;;;;5007960;28;20944;-51
2020/12/24 20:54:15;;;;;;;1999.90;999.90;;;2.10;99.90;;;;;;5015186;28;20452;-50
2020/12/24 20:56:40;;;;;;;1999.90;999.90;;;2.00;99.90;;;;;;5017106;28;20796;-51
2020/12/24 20:59:06;;;;;;;1999.90;999.90;;;2.00;99.90;;;;;;5012857;28;20488;-50
2020/12/24 21:01:37;;;;;;;1999.90;999.90;;;2.00;99.90;;;;;;5014678;28;20273;-51
2020/12/24 21:04:03;;;;;;;1999.90;999.90;;;1.90;99.90;;;;;;5009533;28;20437;-50
2020/12/24 21:06:30;;;;;;;1999.90;999.90;;;2.00;99.90;;;;;;5016524;28;20452;-51
2020/12/24 21:08:57;;;;;;;1999.90;999.90;;;2.00;99.90;;;;;;5016937;28;20452;-49
2020/12/24 21:11:22;;;;;;;1999.90;999.90;;;2.00;99.90;;;;;;5013074;28;20448;-48
2020/12/24 21:13:48;;;;;;;1999.90;999.90;;;2.00;99.90;;;;;;5009105;28;20436;-49
2020/12/24 21:16:14;;;;;;;1999.90;999.90;;;1.90;99.90;;;;;;5004761;28;20191;-50
2020/12/24 21:18:40;;;;;;;1999.90;999.90;;;1.90;99.90;;;;;;5012851;28;20621;-50
2020/12/24 21:21:06;;;;;;;1999.90;999.90;;;1.90;99.90;;;;;;5015694;28;20450;-48
2020/12/24 21:23:32;;;;;;;1999.90;999.90;;;1.90;99.90;;;;;;5014245;28;20442;-49
2020/12/24 21:25:57;;;;;;;1999.90;999.90;;;1.80;99.90;;;;;;5010933;28;20465;-51
2020/12/24 21:28:23;;;;;;;1999.90;999.90;;;1.80;99.90;;;;;;5007666;28;20279;-51
2020/12/24 21:30:48;;;;;;;1999.90;999.90;;;1.80;99.90;;;;;;5009959;28;20180;-50
2020/12/24 21:33:15;;;;;;;1999.90;999.90;;;1.80;99.90;;;;;;5008977;28;20693;-51
2020/12/24 21:35:44;;;;;;;1999.90;999.90;;;1.80;99.90;;;;;;5008008;28;20667;-49
2020/12/24 21:38:09;;;;;;;1999.90;999.90;;;1.90;99.90;;;;;;5009665;28;20426;-49
2020/12/24 21:40:35;;;;;;;1999.90;999.90;;;2.00;99.90;;;;;;5008838;28;20436;-51
2020/12/24 21:43:02;;;;;;;1999.90;999.90;;;2.00;99.90;;;;;;5007021;28;20616;-52
2020/12/24 21:45:28;;;;;;;1999.90;999.90;;;1.90;99.90;;;;;;5005340;28;20238;-52
2020/12/24 21:47:54;;;;;;;1999.90;999.90;;;1.90;99.90;;;;;;5013223;28;20465;-50
2020/12/24 21:50:19;;;;;;;1999.90;999.90;;;1.90;99.90;;;;;;5012611;28;20210;-51
2020/12/24 21:52:46;;;;;;;1999.90;999.90;;;1.90;99.90;;;;;;5010299;28;20183;-50
2020/12/24 21:55:11;;;;;;;1999.90;999.90;;;1.90;99.90;;;;;;5012452;28;20190;-51
2020/12/24 21:57:37;;;;;;;1999.90;999.90;;;1.90;99.90;;;;;;5008569;28;20890;-50
2020/12/24 22:00:04;;;;;;;1999.90;999.90;;;1.90;99.90;;;;;;5013549;28;20206;-50
2020/12/24 22:02:30;;;;;;;1999.90;999.90;;;1.90;99.90;;;;;;5012705;28;20207;-51
2020/12/24 22:04:56;;;;;;;1999.90;999.90;;;1.90;99.90;;;;;;5007632;28;20504;-51
2020/12/24 22:07:22;;;;;;;1999.90;999.90;;;2.00;99.90;;;;;;5014094;28;20176;-51
2020/12/24 22:09:49;;;;;;;1999.90;999.90;;;2.10;99.90;;;;;;5013016;28;20260;-51
2020/12/24 22:12:14;;;;;;;1999.90;999.90;;;2.10;99.90;;;;;;5013334;28;20846;-51
2020/12/24 22:14:40;;;;;;;1999.90;999.90;;;2.10;99.90;;;;;;5011853;28;20476;-50
2020/12/24 22:17:07;;;;;;;1999.90;999.90;;;2.10;99.90;;;;;;5011396;28;20617;-50
2020/12/24 22:19:33;;;;;;;1999.90;999.90;;;2.10;99.90;;;;;;5010666;28;20225;-50
2020/12/24 22:21:58;;;;;;;1999.90;999.90;;;2.10;99.90;;;;;;5011041;28;20459;-51
2020/12/24 22:24:24;;;;;;;1999.90;999.90;;;2.00;99.90;;;;;;5011402;28;20449;-52
2020/12/24 22:26:51;;;;;;;1999.90;999.90;;;1.90;99.90;;;;;;5012018;28;20561;-52
2020/12/24 22:29:18;;;;;;;1999.90;999.90;;;1.90;99.90;;;;;;5012110;28;20203;-51
2020/12/24 22:31:46;;;;;;;1999.90;999.90;;;1.90;99.90;;;;;;5013012;28;20441;-52
2020/12/24 22:34:13;;;;;;;1999.90;999.90;;;1.90;99.90;;;;;;5012253;28;20442;-52
2020/12/24 22:36:39;;;;;;;1999.90;999.90;;;1.90;99.90;;;;;;5012772;28;20434;-52
2020/12/24 22:39:05;;;;;;;1999.90;999.90;;;1.90;99.90;;;;;;5011031;28;20468;-52
2020/12/24 22:41:31;;;;;;;1999.90;999.90;;;1.80;99.90;;;;;;5012671;28;20463;-52
2020/12/24 22:43:57;;;;;;;1999.90;999.90;;;1.90;99.90;;;;;;5012427;28;20464;-52
2020/12/24 22:46:23;;;;;;;1999.90;999.90;;;1.90;99.90;;;;;;5013209;28;20462;-52
2020/12/24 22:48:48;;;;;;;1999.90;999.90;;;1.90;99.90;;;;;;5011427;28;20474;-52
2020/12/24 22:51:14;;;;;;;1999.90;999.90;;;1.90;99.90;;;;;;5011662;28;20209;-51
2020/12/24 22:53:39;;;;;;;1999.90;999.90;;;1.90;99.90;;;;;;5010879;28;20225;-52
2020/12/24 22:56:08;;;;;;;1999.90;999.90;;;1.90;99.90;;;;;;5010972;28;20193;-52
2020/12/24 22:58:34;;;;;;;1999.90;999.90;;;2.00;99.90;;;;;;4998911;28;20625;-51
2020/12/24 23:01:00;;;;;;;1999.90;999.90;;;2.00;99.90;;;;;;5010988;28;20460;-51
2020/12/24 23:03:26;;;;;;;1999.90;999.90;;;2.00;99.90;;;;;;5012523;28;20433;-52
2020/12/24 23:05:51;;;;;;;1999.90;999.90;;;2.00;99.90;;;;;;5012638;28;20204;-52
2020/12/24 23:08:17;;;;;;;1999.90;999.90;;;2.00;99.90;;;;;;5010253;28;20195;-52
2020/12/24 23:10:43;;;;;;;1999.90;999.90;;;2.00;99.90;;;;;;5012225;28;20205;-52
